Time;durP1;ratioP1;P1;durP2;ratioP2;P2;SDS_P1;SDS_P2;PMS_P1;PMS_P2;Temp;Humidity;BMP_temperature;BMP_pressure;BME280_temperature;BME280_humidity;BME280_pressure;Samples;Min_cycle;Max_cycle;Signal;HPM_P1;HPM_P2
2022/03/25 00:01:41;;;;;;;76.50;42.95;;;11.00;94.40;;;;;;5035343;28;20021;-76
2022/03/25 00:04:07;;;;;;;66.18;39.85;;;11.00;94.20;;;;;;5032121;28;20032;-76
2022/03/25 00:06:33;;;;;;;76.15;43.55;;;11.00;94.60;;;;;;5037044;28;20082;-76
2022/03/25 00:09:00;;;;;;;73.03;40.25;;;11.00;95.20;;;;;;5031056;28;20489;-76
2022/03/25 00:11:26;;;;;;;73.47;41.60;;;10.90;95.30;;;;;;5032546;28;20026;-75
2022/03/25 00:13:51;;;;;;;74.07;39.72;;;10.90;95.30;;;;;;5031889;28;20052;-76
2022/03/25 00:16:17;;;;;;;70.63;42.33;;;10.90;95.40;;;;;;5030132;28;20382;-76
2022/03/25 00:18:43;;;;;;;71.75;42.85;;;10.90;95.30;;;;;;5036748;28;20442;-76
2022/03/25 00:21:08;;;;;;;72.53;41.20;;;10.80;94.90;;;;;;5027906;28;20031;-75
2022/03/25 00:23:34;;;;;;;69.07;41.65;;;10.80;96.00;;;;;;5037718;28;20421;-76
2022/03/25 00:26:01;;;;;;;79.10;42.75;;;10.80;94.70;;;;;;5028203;28;20394;-75
2022/03/25 00:28:27;;;;;;;68.97;40.45;;;10.70;95.60;;;;;;5038406;28;20017;-75
2022/03/25 00:30:53;;;;;;;65.85;40.85;;;10.60;96.40;;;;;;5028336;28;20121;-76
2022/03/25 00:33:19;;;;;;;70.03;39.28;;;10.60;96.30;;;;;;5031567;28;20104;-76
2022/03/25 00:35:45;;;;;;;71.32;40.75;;;10.60;95.90;;;;;;5030164;28;20162;-76
2022/03/25 00:38:12;;;;;;;71.85;37.88;;;10.50;96.20;;;;;;5029978;28;20394;-75
2022/03/25 00:40:37;;;;;;;63.33;37.95;;;10.50;96.10;;;;;;5030470;28;20132;-75
2022/03/25 00:43:03;;;;;;;71.43;40.63;;;10.40;95.70;;;;;;5026767;28;20699;-75
2022/03/25 00:45:29;;;;;;;67.50;39.85;;;10.50;95.60;;;;;;5037636;28;20482;-75
2022/03/25 00:47:58;;;;;;;65.60;39.25;;;10.40;95.40;;;;;;5026081;28;20040;-75
2022/03/25 00:50:24;;;;;;;76.35;41.67;;;10.40;95.70;;;;;;5038526;28;20033;-75
2022/03/25 00:52:50;;;;;;;69.63;40.42;;;10.40;96.40;;;;;;5029872;28;20037;-75
2022/03/25 00:55:16;;;;;;;78.63;42.42;;;10.30;96.90;;;;;;5044575;28;20037;-76
2022/03/25 00:57:42;;;;;;;75.65;41.65;;;10.30;96.40;;;;;;5045956;28;20033;-75
2022/03/25 01:00:09;;;;;;;74.30;40.65;;;10.20;97.00;;;;;;5029951;28;20041;-76
2022/03/25 01:02:35;;;;;;;72.63;40.10;;;10.20;96.50;;;;;;5044239;28;20040;-75
2022/03/25 01:05:00;;;;;;;73.20;39.78;;;10.10;97.10;;;;;;5035579;28;20466;-75
2022/03/25 01:07:26;;;;;;;75.93;40.13;;;10.10;97.10;;;;;;5038935;28;20443;-75
2022/03/25 01:09:52;;;;;;;81.35;42.10;;;10.00;96.90;;;;;;5033625;28;20431;-75
2022/03/25 01:12:19;;;;;;;75.50;40.90;;;10.10;96.90;;;;;;5035143;28;20036;-75
2022/03/25 01:14:45;;;;;;;74.75;41.50;;;10.10;96.60;;;;;;5036153;28;20040;-76
2022/03/25 01:17:10;;;;;;;73.13;39.83;;;10.00;97.40;;;;;;5035432;28;20100;-75
2022/03/25 01:19:36;;;;;;;74.28;41.83;;;10.00;97.10;;;;;;5040348;28;20026;-75
2022/03/25 01:22:03;;;;;;;76.25;41.20;;;10.00;97.40;;;;;;5031765;28;20417;-75
2022/03/25 01:24:30;;;;;;;73.00;39.42;;;9.90;97.30;;;;;;5036646;28;20029;-75
2022/03/25 01:26:56;;;;;;;76.55;39.28;;;9.90;98.00;;;;;;5033875;28;20026;-76
2022/03/25 01:29:22;;;;;;;75.95;40.22;;;9.80;97.60;;;;;;5034442;28;20040;-75
2022/03/25 01:31:48;;;;;;;74.78;40.95;;;9.80;97.70;;;;;;5038196;28;20017;-75
2022/03/25 01:34:15;;;;;;;79.38;43.60;;;9.80;97.00;;;;;;5030000;28;20482;-75
2022/03/25 01:36:41;;;;;;;76.15;43.03;;;9.80;97.60;;;;;;5041823;28;20560;-75
2022/03/25 01:39:07;;;;;;;79.38;43.33;;;9.70;96.80;;;;;;5042870;28;20104;-75
2022/03/25 01:41:32;;;;;;;81.43;45.25;;;9.80;96.70;;;;;;5031472;28;20027;-75
2022/03/25 01:44:00;;;;;;;88.32;45.63;;;9.80;97.00;;;;;;5029256;28;20022;-75
2022/03/25 01:46:26;;;;;;;82.72;42.47;;;9.80;97.70;;;;;;5043702;28;20031;-75
2022/03/25 01:48:52;;;;;;;76.93;40.53;;;9.70;98.10;;;;;;5037714;28;20493;-75
2022/03/25 01:51:42;;;;;;;85.75;42.35;;;9.70;97.50;;;;;;5029734;28;20032;-75
2022/03/25 01:54:30;;;;;;;75.78;41.38;;;9.60;97.90;;;;;;5037087;28;20045;-76
2022/03/25 01:57:03;;;;;;;86.45;45.38;;;9.60;97.80;;;;;;5037719;28;20029;-75
2022/03/25 01:59:29;;;;;;;;;;;9.60;97.80;;;;;;5025787;28;20033;-75
2022/03/25 02:01:55;;;;;;;80.18;42.58;;;9.50;98.20;;;;;;5039368;28;19905;-75
2022/03/25 02:04:22;;;;;;;88.40;44.80;;;9.60;97.80;;;;;;5040508;28;20509;-75
2022/03/25 02:06:48;;;;;;;92.25;48.63;;;9.50;98.10;;;;;;5028247;28;20029;-75
2022/03/25 02:09:14;;;;;;;92.95;48.40;;;9.50;96.90;;;;;;5041167;28;20028;-75
2022/03/25 02:11:40;;;;;;;91.15;47.15;;;9.50;98.10;;;;;;5041046;28;20116;-75
2022/03/25 02:14:06;;;;;;;81.22;45.05;;;9.40;98.80;;;;;;5038224;28;20034;-75
2022/03/25 02:16:40;;;;;;;88.53;45.10;;;9.40;98.20;;;;;;5034885;28;20084;-75
2022/03/25 02:19:08;;;;;;;82.95;43.63;;;9.40;98.20;;;;;;5030585;28;20061;-75
2022/03/25 02:21:38;;;;;;;90.45;46.30;;;9.40;97.90;;;;;;5040377;28;20024;-75
2022/03/25 02:24:06;;;;;;;95.65;48.85;;;9.40;98.00;;;;;;5029713;28;20549;-75
2022/03/25 02:26:32;;;;;;;92.47;51.85;;;9.30;97.00;;;;;;5040526;28;20017;-75
2022/03/25 02:28:59;;;;;;;97.30;50.67;;;9.30;98.30;;;;;;5026837;28;20025;-75
2022/03/25 02:31:25;;;;;;;90.95;48.85;;;9.30;98.00;;;;;;5038849;28;20426;-75
2022/03/25 02:33:55;;;;;;;92.13;48.63;;;9.30;98.40;;;;;;5031650;28;20067;-75
2022/03/25 02:36:21;;;;;;;91.03;47.20;;;9.30;97.40;;;;;;5038015;28;20037;-75
2022/03/25 02:38:47;;;;;;;90.13;47.95;;;9.20;98.60;;;;;;5038628;28;20029;-75
2022/03/25 02:41:12;;;;;;;92.38;48.63;;;9.20;98.90;;;;;;5040597;28;20167;-75
2022/03/25 02:43:38;;;;;;;85.10;44.42;;;9.20;98.60;;;;;;5038601;28;20147;-75
2022/03/25 02:46:04;;;;;;;92.85;45.80;;;9.10;97.40;;;;;;5030280;28;20074;-75
2022/03/25 02:48:30;;;;;;;95.97;48.40;;;9.10;97.10;;;;;;5042416;28;20040;-75
2022/03/25 02:50:56;;;;;;;85.28;44.50;;;9.00;98.50;;;;;;5034262;28;20515;-75
2022/03/25 02:53:22;;;;;;;92.25;46.85;;;9.00;97.90;;;;;;5031330;28;20044;-75
2022/03/25 02:55:47;;;;;;;90.80;45.05;;;9.00;97.60;;;;;;5043092;28;20040;-75
2022/03/25 02:58:13;;;;;;;88.32;46.88;;;9.00;99.20;;;;;;5037660;28;20371;-75
2022/03/25 03:00:39;;;;;;;81.97;41.80;;;9.00;97.90;;;;;;5032587;28;20393;-75
2022/03/25 03:03:04;;;;;;;90.80;46.05;;;9.00;99.00;;;;;;5036513;28;20029;-76
2022/03/25 03:05:31;;;;;;;83.75;45.13;;;8.90;99.40;;;;;;5036885;28;20443;-75
2022/03/25 03:07:57;;;;;;;88.00;46.08;;;8.90;98.70;;;;;;5046173;28;20035;-75
2022/03/25 03:10:24;;;;;;;85.97;48.08;;;8.90;98.60;;;;;;5031985;28;20017;-75
2022/03/25 03:12:52;;;;;;;92.45;48.63;;;8.90;98.20;;;;;;5035025;28;20048;-75
2022/03/25 03:15:19;;;;;;;88.47;45.90;;;8.90;98.10;;;;;;5036849;28;20025;-75
2022/03/25 03:17:46;;;;;;;93.20;46.75;;;8.80;98.80;;;;;;5031984;28;20041;-75
2022/03/25 03:20:13;;;;;;;87.97;46.58;;;8.90;98.60;;;;;;5033379;28;20075;-75
2022/03/25 03:22:39;;;;;;;98.72;49.22;;;8.80;99.60;;;;;;5037059;28;20032;-75
2022/03/25 03:25:05;;;;;;;90.82;45.67;;;8.80;99.10;;;;;;5035247;28;20033;-76
2022/03/25 03:27:31;;;;;;;97.03;46.95;;;8.80;99.60;;;;;;5029297;28;20040;-75
2022/03/25 03:29:58;;;;;;;92.00;47.92;;;8.80;99.20;;;;;;5037148;28;20025;-76
2022/03/25 03:32:25;;;;;;;95.40;49.05;;;8.70;99.30;;;;;;5024899;28;20375;-76
2022/03/25 03:34:53;;;;;;;98.25;49.15;;;8.70;98.60;;;;;;5035230;28;20037;-75
2022/03/25 03:37:20;;;;;;;93.93;48.45;;;8.70;98.70;;;;;;5039619;28;20024;-75
2022/03/25 03:39:46;;;;;;;90.13;47.00;;;8.70;99.60;;;;;;5032322;28;20374;-75
2022/03/25 03:42:12;;;;;;;97.93;47.92;;;8.60;99.60;;;;;;5029483;28;20359;-75
2022/03/25 03:44:38;;;;;;;91.57;47.95;;;8.70;99.00;;;;;;5034299;28;20036;-75
2022/03/25 03:47:06;;;;;;;95.43;48.40;;;8.70;99.50;;;;;;5028972;28;20028;-75
2022/03/25 03:49:33;;;;;;;93.00;46.47;;;8.60;99.90;;;;;;5031888;28;20141;-75
2022/03/25 03:51:58;;;;;;;88.35;46.63;;;8.60;99.00;;;;;;5031043;28;20027;-76
2022/03/25 03:54:24;;;;;;;88.78;45.92;;;8.50;99.80;;;;;;5032403;28;20045;-75
2022/03/25 03:56:50;;;;;;;93.57;48.88;;;8.60;99.90;;;;;;5033586;28;20024;-75
2022/03/25 03:59:16;;;;;;;85.30;44.92;;;8.50;98.80;;;;;;5037015;28;20104;-75
2022/03/25 04:01:41;;;;;;;84.50;43.30;;;8.50;99.20;;;;;;5056668;28;20017;-75
2022/03/25 04:04:07;;;;;;;91.85;45.28;;;8.50;98.40;;;;;;5026889;28;20094;-75
2022/03/25 04:06:33;;;;;;;91.82;44.83;;;8.40;98.80;;;;;;5032523;28;20052;-76
2022/03/25 04:08:58;;;;;;;84.75;45.80;;;8.40;98.90;;;;;;5028778;28;20029;-75
2022/03/25 04:11:24;;;;;;;96.03;47.90;;;8.40;99.40;;;;;;5028577;28;20048;-76
2022/03/25 04:13:50;;;;;;;98.00;50.55;;;8.30;99.30;;;;;;5035826;28;20051;-75
2022/03/25 04:16:16;;;;;;;93.43;49.10;;;8.30;99.50;;;;;;5041455;28;20033;-75
2022/03/25 04:18:41;;;;;;;93.30;48.28;;;8.30;99.10;;;;;;5036488;28;20112;-75
2022/03/25 04:21:07;;;;;;;90.22;44.83;;;8.30;99.40;;;;;;5028965;28;20097;-75
2022/03/25 04:23:33;;;;;;;86.35;43.85;;;8.20;99.90;;;;;;5036916;28;20097;-76
2022/03/25 04:25:59;;;;;;;91.13;46.20;;;8.10;99.90;;;;;;5032771;28;20029;-75
2022/03/25 04:28:24;;;;;;;94.78;48.03;;;8.20;99.80;;;;;;5036560;28;20038;-76
2022/03/25 04:30:50;;;;;;;89.43;47.30;;;8.10;99.90;;;;;;5028387;28;20113;-75
2022/03/25 04:33:16;;;;;;;88.05;46.00;;;8.10;99.20;;;;;;5038564;28;20047;-75
2022/03/25 04:35:41;;;;;;;88.97;45.28;;;8.10;99.30;;;;;;5032124;28;20026;-75
2022/03/25 04:38:07;;;;;;;88.53;43.80;;;8.10;99.80;;;;;;5029580;28;20091;-75
2022/03/25 04:40:34;;;;;;;88.20;44.10;;;8.10;99.40;;;;;;5041658;28;20095;-75
2022/03/25 04:43:01;;;;;;;92.57;46.67;;;8.10;99.70;;;;;;5023851;28;20028;-75
2022/03/25 04:45:29;;;;;;;87.60;44.67;;;8.00;99.90;;;;;;5041626;28;20025;-75
2022/03/25 04:47:55;;;;;;;89.88;44.25;;;8.00;99.10;;;;;;5021795;28;20021;-75
2022/03/25 04:50:21;;;;;;;92.47;45.92;;;7.90;98.50;;;;;;5037048;28;20390;-75
2022/03/25 04:52:47;;;;;;;94.13;46.45;;;7.90;99.70;;;;;;5039675;28;20493;-75
2022/03/25 04:55:13;;;;;;;88.28;43.38;;;7.90;99.20;;;;;;5023348;28;20034;-75
2022/03/25 04:57:39;;;;;;;90.20;47.50;;;7.80;99.90;;;;;;5036628;28;20108;-75
2022/03/25 05:00:06;;;;;;;92.45;48.80;;;7.80;99.20;;;;;;5030603;28;20033;-76
2022/03/25 05:02:32;;;;;;;95.93;48.50;;;7.80;99.60;;;;;;5030969;28;20097;-75
2022/03/25 05:04:58;;;;;;;96.25;48.80;;;7.70;99.70;;;;;;5024269;28;20030;-76
2022/03/25 05:07:24;;;;;;;95.95;47.05;;;7.70;99.90;;;;;;5028900;28;20032;-75
2022/03/25 05:09:51;;;;;;;100.95;50.80;;;7.70;99.90;;;;;;5032635;28;20083;-75
2022/03/25 05:12:17;;;;;;;98.88;48.17;;;7.70;99.90;;;;;;5027871;28;20044;-75
2022/03/25 05:14:43;;;;;;;92.30;48.38;;;7.70;99.90;;;;;;5037422;28;20069;-75
2022/03/25 05:17:08;;;;;;;89.20;45.83;;;7.60;99.90;;;;;;5026489;28;20079;-75
2022/03/25 05:19:34;;;;;;;94.20;46.28;;;7.60;99.90;;;;;;5037924;28;20028;-75
2022/03/25 05:22:00;;;;;;;98.90;47.45;;;7.60;99.90;;;;;;5031059;28;20087;-75
2022/03/25 05:24:26;;;;;;;94.18;45.00;;;7.60;99.90;;;;;;5037399;28;20120;-75
2022/03/25 05:26:53;;;;;;;101.78;47.03;;;7.60;99.80;;;;;;5039625;28;20025;-75
2022/03/25 05:29:20;;;;;;;86.20;43.85;;;7.60;99.90;;;;;;5034782;28;20032;-75
2022/03/25 05:31:46;;;;;;;90.43;46.30;;;7.60;99.60;;;;;;5044576;28;20436;-75
2022/03/25 05:34:12;;;;;;;92.68;44.90;;;7.50;99.70;;;;;;5031970;28;20037;-75
2022/03/25 05:36:38;;;;;;;96.70;46.50;;;7.50;99.80;;;;;;5040245;28;20028;-75
2022/03/25 05:39:04;;;;;;;102.28;49.00;;;7.50;99.90;;;;;;5022833;28;20360;-75
2022/03/25 05:41:31;;;;;;;103.35;47.78;;;7.50;99.90;;;;;;5041986;28;20040;-75
2022/03/25 05:43:56;;;;;;;98.47;46.03;;;7.50;99.80;;;;;;5040664;28;20060;-75
2022/03/25 05:46:23;;;;;;;107.32;49.35;;;7.40;99.70;;;;;;5046251;28;20431;-75
2022/03/25 05:48:48;;;;;;;97.00;48.38;;;7.40;99.90;;;;;;5028712;28;20029;-75
2022/03/25 05:51:15;;;;;;;97.90;47.08;;;7.40;99.90;;;;;;5046659;28;20017;-75
2022/03/25 05:53:41;;;;;;;97.93;48.53;;;7.40;99.90;;;;;;5038990;28;20024;-75
2022/03/25 05:56:07;;;;;;;96.22;49.28;;;7.40;99.90;;;;;;5048825;28;20093;-75
2022/03/25 05:58:37;;;;;;;97.65;49.80;;;7.40;99.90;;;;;;5041807;28;20044;-75
2022/03/25 06:01:04;;;;;;;107.47;52.95;;;7.40;99.90;;;;;;5042761;28;20378;-75
2022/03/25 06:03:32;;;;;;;96.30;49.65;;;7.40;99.90;;;;;;5046063;28;20017;-75
2022/03/25 06:05:59;;;;;;;102.93;48.90;;;7.40;99.90;;;;;;5038915;28;20030;-75
2022/03/25 06:08:24;;;;;;;95.72;47.83;;;7.40;99.90;;;;;;5038846;28;20033;-75
2022/03/25 06:10:51;;;;;;;101.05;46.63;;;7.40;99.90;;;;;;5041299;28;20378;-75
2022/03/25 06:13:17;;;;;;;102.88;48.22;;;7.40;99.90;;;;;;5037775;28;20515;-75
2022/03/25 06:15:43;;;;;;;96.40;45.35;;;7.40;99.90;;;;;;5037386;28;20075;-75
2022/03/25 06:18:09;;;;;;;103.32;51.03;;;7.40;99.30;;;;;;5047369;28;20046;-75
2022/03/25 06:20:34;;;;;;;99.63;47.67;;;7.40;99.90;;;;;;5029132;28;20363;-75
2022/03/25 06:23:00;;;;;;;101.93;48.28;;;7.40;99.90;;;;;;5036933;28;20036;-75
2022/03/25 06:25:26;;;;;;;97.32;46.28;;;7.40;99.80;;;;;;5033574;28;20029;-75
2022/03/25 06:27:54;;;;;;;101.63;51.00;;;7.40;99.90;;;;;;5034794;28;20483;-75
2022/03/25 06:30:21;;;;;;;91.32;44.75;;;7.40;99.90;;;;;;5048160;28;20075;-75
2022/03/25 06:32:47;;;;;;;94.63;48.13;;;7.40;99.90;;;;;;5025567;28;20044;-75
2022/03/25 06:35:14;;;;;;;94.57;46.97;;;7.40;99.90;;;;;;5039983;28;20120;-75
2022/03/25 06:37:40;;;;;;;95.80;45.20;;;7.40;99.90;;;;;;5032676;28;20377;-75
2022/03/25 06:40:07;;;;;;;93.57;47.95;;;7.40;99.90;;;;;;5030064;28;20033;-76
2022/03/25 06:42:37;;;;;;;98.68;47.10;;;7.40;99.90;;;;;;5030989;28;20026;-76
2022/03/25 06:45:04;;;;;;;99.47;46.65;;;7.40;99.90;;;;;;5029932;28;20112;-75
2022/03/25 06:47:30;;;;;;;102.22;49.67;;;7.50;99.90;;;;;;5036892;28;20060;-75
2022/03/25 06:49:56;;;;;;;106.70;50.78;;;7.50;99.90;;;;;;5038109;28;20061;-76
2022/03/25 06:52:22;;;;;;;104.60;52.47;;;7.60;99.90;;;;;;5040747;28;20032;-76
2022/03/25 06:54:48;;;;;;;105.38;51.80;;;7.60;99.90;;;;;;5027089;28;20460;-76
2022/03/25 06:57:14;;;;;;;102.70;51.42;;;7.60;99.90;;;;;;5033285;28;20108;-75
2022/03/25 06:59:41;;;;;;;116.55;51.50;;;7.70;99.90;;;;;;5030973;28;20056;-76
2022/03/25 07:02:12;;;;;;;113.05;54.33;;;7.70;99.90;;;;;;5038222;28;20187;-76
2022/03/25 07:04:39;;;;;;;113.88;54.80;;;7.70;99.90;;;;;;5024598;28;20026;-75
2022/03/25 07:07:06;;;;;;;108.28;52.55;;;7.80;99.90;;;;;;5034778;28;20026;-76
2022/03/25 07:09:32;;;;;;;114.30;53.47;;;8.00;99.90;;;;;;5036534;28;20389;-76
2022/03/25 07:11:59;;;;;;;117.78;54.10;;;8.00;99.90;;;;;;5025101;28;20026;-76
2022/03/25 07:14:25;;;;;;;117.07;55.25;;;8.10;99.90;;;;;;5037326;28;20489;-76
2022/03/25 07:16:51;;;;;;;109.20;55.50;;;8.20;99.90;;;;;;5029631;28;20017;-76
2022/03/25 07:19:17;;;;;;;112.22;56.08;;;8.20;99.90;;;;;;5031474;28;20386;-76
2022/03/25 07:21:43;;;;;;;121.28;55.28;;;8.30;99.90;;;;;;5041417;28;20489;-76
2022/03/25 07:24:09;;;;;;;114.60;52.72;;;8.40;99.90;;;;;;5042298;28;20453;-76
2022/03/25 07:26:35;;;;;;;106.68;51.75;;;8.40;99.90;;;;;;5038911;28;20022;-76
2022/03/25 07:29:01;;;;;;;115.15;56.72;;;8.50;99.90;;;;;;5030468;28;20025;-76
2022/03/25 07:31:28;;;;;;;107.97;54.70;;;8.60;99.90;;;;;;5043343;28;20167;-76
2022/03/25 07:33:57;;;;;;;101.43;52.08;;;8.70;99.90;;;;;;5044932;28;20028;-76
2022/03/25 07:36:23;;;;;;;111.15;54.58;;;8.80;99.90;;;;;;5027621;28;20041;-76
2022/03/25 07:38:50;;;;;;;108.70;54.63;;;8.80;99.90;;;;;;5035586;28;20032;-76
2022/03/25 07:41:15;;;;;;;109.97;54.67;;;8.90;99.90;;;;;;5026037;28;20104;-77
2022/03/25 07:43:41;;;;;;;111.40;54.55;;;9.00;99.90;;;;;;5035775;28;20155;-77
2022/03/25 07:46:07;;;;;;;112.00;58.38;;;9.00;99.90;;;;;;5031062;28;20063;-76
2022/03/25 07:48:33;;;;;;;114.70;59.75;;;9.10;99.90;;;;;;5032411;28;20030;-78
2022/03/25 07:50:59;;;;;;;119.53;61.28;;;9.20;99.90;;;;;;5042120;28;20022;-76
2022/03/25 07:53:25;;;;;;;117.75;58.97;;;9.40;99.90;;;;;;5031031;28;20033;-77
2022/03/25 07:55:51;;;;;;;111.60;59.13;;;9.40;99.90;;;;;;5037722;28;20025;-77
2022/03/25 07:58:21;;;;;;;115.18;59.58;;;9.60;99.90;;;;;;5025203;28;20091;-76
2022/03/25 08:00:48;;;;;;;108.53;56.42;;;9.70;99.90;;;;;;5030563;28;20052;-77
2022/03/25 08:03:14;;;;;;;112.93;60.47;;;9.80;99.90;;;;;;5043868;28;20429;-76
2022/03/25 08:05:40;;;;;;;113.10;57.90;;;9.80;99.90;;;;;;5038443;28;20024;-76
2022/03/25 08:08:06;;;;;;;121.00;65.20;;;10.10;99.90;;;;;;5030259;28;20463;-77
2022/03/25 08:10:32;;;;;;;115.72;60.50;;;10.20;99.90;;;;;;5035711;28;20056;-77
2022/03/25 08:13:02;;;;;;;115.13;63.15;;;10.30;99.90;;;;;;5039959;28;20013;-77
2022/03/25 08:15:29;;;;;;;125.50;62.40;;;10.40;99.90;;;;;;5035633;28;20036;-76
2022/03/25 08:17:58;;;;;;;119.45;62.28;;;10.60;99.90;;;;;;5037997;28;20022;-76
2022/03/25 08:20:41;;;;;;;115.60;61.72;;;10.60;99.90;;;;;;5042243;28;20045;-77
2022/03/25 08:28:48;;;;;;;113.30;59.50;;;11.00;99.90;;;;;;5023527;28;20068;-76
2022/03/25 08:31:13;;;;;;;111.28;61.63;;;11.10;99.90;;;;;;5029207;28;20061;-76
2022/03/25 08:33:39;;;;;;;122.40;65.13;;;11.20;99.90;;;;;;5037739;28;20024;-76
2022/03/25 08:36:05;;;;;;;117.38;64.18;;;11.40;99.90;;;;;;5033803;28;20033;-77
2022/03/25 08:38:30;;;;;;;122.18;67.50;;;11.60;99.90;;;;;;5037940;28;20474;-76
2022/03/25 08:40:56;;;;;;;115.43;63.63;;;11.80;99.90;;;;;;5029489;28;20061;-76
2022/03/25 08:43:22;;;;;;;116.30;62.53;;;11.90;99.90;;;;;;5031206;28;20014;-76
2022/03/25 08:45:47;;;;;;;110.20;61.58;;;12.00;99.90;;;;;;5026116;28;20033;-76
2022/03/25 08:48:14;;;;;;;113.47;62.53;;;11.90;99.90;;;;;;5032056;28;20381;-77
2022/03/25 08:50:40;;;;;;;119.40;63.65;;;12.00;99.90;;;;;;5032919;28;20084;-77
2022/03/25 08:53:06;;;;;;;115.25;66.32;;;12.20;99.90;;;;;;5033326;28;20033;-77
2022/03/25 08:55:32;;;;;;;115.15;63.92;;;12.30;99.90;;;;;;5023884;28;20461;-77
2022/03/25 08:57:58;;;;;;;110.57;62.38;;;12.40;99.70;;;;;;5034715;28;20101;-76
2022/03/25 09:00:24;;;;;;;117.57;63.08;;;12.50;99.90;;;;;;5031587;28;20505;-78
2022/03/25 09:02:49;;;;;;;114.22;64.60;;;12.50;99.80;;;;;;5028843;28;20390;-77
2022/03/25 09:05:16;;;;;;;109.70;62.00;;;12.70;99.50;;;;;;5030393;28;20025;-77
2022/03/25 09:07:42;;;;;;;108.38;63.83;;;12.80;99.40;;;;;;5026396;28;20053;-78
2022/03/25 09:10:09;;;;;;;114.07;63.60;;;12.90;99.20;;;;;;5032497;28;20017;-77
2022/03/25 09:12:35;;;;;;;117.68;62.35;;;13.00;99.20;;;;;;5032894;28;20028;-77
2022/03/25 09:15:04;;;;;;;113.53;61.47;;;13.20;99.00;;;;;;5037695;28;20025;-77
2022/03/25 09:17:30;;;;;;;115.32;64.20;;;13.20;98.90;;;;;;5028604;28;20120;-78
2022/03/25 09:19:56;;;;;;;122.22;65.43;;;13.10;98.80;;;;;;5039285;28;20502;-77
2022/03/25 09:22:21;;;;;;;114.47;65.68;;;13.30;99.10;;;;;;5032799;28;20425;-78
2022/03/25 09:24:48;;;;;;;111.10;61.53;;;13.50;99.00;;;;;;5035838;28;20021;-77
2022/03/25 09:27:13;;;;;;;99.68;59.88;;;13.70;98.40;;;;;;5034181;28;20025;-78
2022/03/25 09:29:39;;;;;;;111.55;60.08;;;13.80;97.70;;;;;;5035960;28;20548;-77
2022/03/25 09:32:05;;;;;;;101.93;58.10;;;13.90;96.80;;;;;;5032800;28;20040;-77
2022/03/25 09:37:15;;;;;;;101.30;56.25;;;14.20;96.40;;;;;;5036896;28;20027;-77
2022/03/25 09:39:41;;;;;;;96.65;57.85;;;14.40;96.40;;;;;;5029985;28;20025;-77
2022/03/25 09:42:07;;;;;;;107.22;61.25;;;14.60;96.50;;;;;;5036131;28;20037;-77
2022/03/25 09:44:34;;;;;;;106.07;61.22;;;14.80;96.30;;;;;;5033202;28;20040;-77
2022/03/25 09:47:02;;;;;;;106.63;60.65;;;14.90;95.80;;;;;;5039416;28;20091;-77
2022/03/25 09:49:28;;;;;;;97.93;58.58;;;15.10;95.90;;;;;;5038175;28;20033;-77
2022/03/25 09:51:54;;;;;;;99.28;60.58;;;15.30;95.50;;;;;;5031581;28;20021;-77
2022/03/25 09:54:20;;;;;;;95.97;53.97;;;15.40;95.00;;;;;;5022803;28;20034;-77
2022/03/25 09:56:46;;;;;;;96.95;55.55;;;15.30;93.70;;;;;;5042547;28;20032;-77
2022/03/25 09:59:18;;;;;;;95.63;56.72;;;15.10;94.00;;;;;;5041254;28;20124;-76
2022/03/25 10:01:44;;;;;;;103.03;57.97;;;15.20;94.40;;;;;;5037094;28;20033;-77
2022/03/25 10:04:45;;;;;;;101.50;58.50;;;15.30;94.30;;;;;;5031783;28;20029;-77
2022/03/25 10:07:23;;;;;;;101.38;57.53;;;15.60;93.70;;;;;;5048841;28;20029;-76
2022/03/25 10:10:08;;;;;;;97.70;57.90;;;15.70;93.30;;;;;;5034204;28;20103;-77
2022/03/25 10:12:35;;;;;;;106.45;59.05;;;15.70;93.30;;;;;;5034133;28;20087;-77
2022/03/25 10:15:11;;;;;;;91.22;53.50;;;16.00;93.70;;;;;;5027247;28;20394;-77
2022/03/25 10:17:59;;;;;;;97.55;56.78;;;16.20;93.10;;;;;;5024462;28;20033;-77
2022/03/25 10:20:28;;;;;;;88.55;52.65;;;16.30;92.70;;;;;;5037945;28;20037;-76
2022/03/25 10:23:13;;;;;;;93.18;52.67;;;16.40;92.70;;;;;;5029378;28;20022;-76
2022/03/25 10:25:48;;;;;;;91.15;55.78;;;16.50;92.40;;;;;;5039049;28;20036;-77
2022/03/25 10:28:30;;;;;;;95.78;55.47;;;16.60;92.10;;;;;;5027559;28;20057;-75
2022/03/25 10:31:02;;;;;;;94.15;56.22;;;16.60;92.20;;;;;;5048171;28;20067;-76
2022/03/25 10:33:30;;;;;;;93.47;56.53;;;16.80;91.90;;;;;;5044847;28;20479;-76
2022/03/25 10:35:58;;;;;;;85.25;50.60;;;16.80;91.70;;;;;;5036399;28;20025;-77
2022/03/25 10:38:25;;;;;;;89.35;51.67;;;16.70;90.30;;;;;;5026252;28;20009;-77
2022/03/25 10:40:53;;;;;;;95.38;52.92;;;16.90;90.80;;;;;;5045288;28;20033;-77
2022/03/25 10:43:19;;;;;;;86.93;50.00;;;16.90;90.90;;;;;;5041203;28;20017;-78
2022/03/25 10:45:47;;;;;;;96.88;52.08;;;17.00;90.20;;;;;;5029157;28;20084;-77
2022/03/25 10:48:18;;;;;;;95.30;54.80;;;17.00;90.80;;;;;;5040527;28;20021;-78
2022/03/25 10:51:13;;;;;;;89.63;50.65;;;17.00;90.40;;;;;;5035916;28;20029;-77
2022/03/25 10:53:43;;;;;;;90.53;53.80;;;17.10;90.30;;;;;;5035275;28;20060;-77
2022/03/25 10:56:11;;;;;;;90.47;50.67;;;17.20;90.60;;;;;;5043162;28;20086;-77
2022/03/25 10:58:37;;;;;;;85.68;50.70;;;17.40;89.80;;;;;;5042428;28;20033;-78
2022/03/25 11:01:05;;;;;;;84.72;52.28;;;17.50;89.00;;;;;;5030994;28;20080;-77
2022/03/25 11:03:31;;;;;;;92.25;52.33;;;17.60;88.50;;;;;;5029223;28;20040;-77
2022/03/25 11:05:57;;;;;;;89.93;57.00;;;17.60;89.30;;;;;;5031314;28;20104;-77
2022/03/25 11:08:23;;;;;;;96.85;55.60;;;17.80;89.00;;;;;;5036854;28;20093;-77
2022/03/25 11:10:49;;;;;;;91.78;55.28;;;17.80;90.10;;;;;;5033688;28;20033;-78
2022/03/25 11:13:16;;;;;;;89.15;53.58;;;18.00;88.80;;;;;;5031031;28;20021;-81
2022/03/25 11:15:44;;;;;;;93.45;55.10;;;18.10;88.10;;;;;;5040587;28;20092;-80
2022/03/25 11:18:11;;;;;;;94.63;53.80;;;18.10;87.10;;;;;;5035607;28;20476;-80
2022/03/25 11:20:38;;;;;;;91.82;56.15;;;18.10;88.90;;;;;;5028315;28;20064;-80
2022/03/25 11:23:19;;;;;;;92.80;54.08;;;18.00;87.50;;;;;;5032709;28;20017;-80
2022/03/25 11:25:49;;;;;;;92.03;53.53;;;18.00;88.10;;;;;;5039988;28;20037;-84
2022/03/25 11:28:20;;;;;;;83.63;53.45;;;18.10;89.30;;;;;;5028371;28;20017;-80
2022/03/25 11:30:57;;;;;;;80.82;50.65;;;18.10;90.00;;;;;;5029453;28;20367;-81
2022/03/25 11:33:23;;;;;;;94.15;56.08;;;18.20;89.10;;;;;;5024381;28;20024;-81
2022/03/25 11:36:13;;;;;;;91.70;54.83;;;18.30;88.50;;;;;;5035130;28;20180;-86
2022/03/25 11:38:39;;;;;;;86.20;53.53;;;18.50;87.00;;;;;;5028383;28;20628;-84
2022/03/25 11:41:21;;;;;;;91.05;55.25;;;18.60;85.70;;;;;;5032683;28;20462;-87
2022/03/25 11:44:17;;;;;;;80.70;51.40;;;18.60;86.30;;;;;;5029828;28;20071;-85
2022/03/25 11:47:01;;;;;;;86.97;51.60;;;18.50;88.00;;;;;;5042185;28;20036;-89
2022/03/25 11:49:31;;;;;;;73.97;43.35;;;18.90;88.10;;;;;;5042081;28;20037;-83
2022/03/25 11:52:18;;;;;;;76.43;47.47;;;18.80;87.80;;;;;;5042587;28;20025;-87
2022/03/25 11:54:44;;;;;;;64.60;39.42;;;18.70;82.50;;;;;;5030806;28;20401;-86
2022/03/25 11:57:26;;;;;;;71.75;42.65;;;18.60;82.30;;;;;;5035378;28;20030;-82
2022/03/25 11:59:56;;;;;;;78.63;43.63;;;18.50;87.30;;;;;;5043590;28;20029;-85
2022/03/25 12:02:32;;;;;;;76.05;47.08;;;18.70;85.10;;;;;;5038140;28;20462;-79
2022/03/25 12:05:03;;;;;;;74.60;40.22;;;18.80;86.10;;;;;;5032051;28;20017;-78
2022/03/25 12:07:29;;;;;;;68.70;41.72;;;18.80;84.00;;;;;;5044205;28;20029;-78
2022/03/25 12:09:55;;;;;;;48.63;32.30;;;18.80;81.20;;;;;;5040371;28;20485;-82
2022/03/25 12:12:54;;;;;;;60.30;36.95;;;18.80;81.30;;;;;;5033335;28;20033;-79
2022/03/25 12:15:20;;;;;;;63.95;36.30;;;18.90;78.70;;;;;;5047438;28;20029;-80
2022/03/25 12:17:45;;;;;;;59.70;33.45;;;18.90;78.50;;;;;;5032820;28;20382;-79
2022/03/25 12:20:11;;;;;;;64.53;40.00;;;18.90;78.40;;;;;;5032930;28;20045;-80
2022/03/25 12:22:38;;;;;;;69.68;40.08;;;18.90;78.50;;;;;;5036264;28;20020;-81
2022/03/25 12:25:13;;;;;;;70.05;43.22;;;19.00;84.10;;;;;;5027959;28;20022;-80
2022/03/25 12:27:39;;;;;;;61.88;38.80;;;19.00;81.00;;;;;;5035414;28;20029;-79
2022/03/25 12:30:06;;;;;;;63.08;38.95;;;19.00;80.60;;;;;;5026155;28;20032;-83
2022/03/25 12:32:35;;;;;;;66.45;40.70;;;19.10;80.20;;;;;;5030113;28;20033;-80
2022/03/25 12:35:05;;;;;;;69.80;42.33;;;19.20;81.50;;;;;;5024655;28;20052;-83
2022/03/25 12:38:01;;;;;;;63.17;38.22;;;19.20;77.50;;;;;;5030963;28;20144;-80
2022/03/25 12:40:32;;;;;;;62.67;38.25;;;19.10;77.50;;;;;;5023562;28;20038;-82
2022/03/25 12:42:59;;;;;;;62.20;37.10;;;19.20;77.10;;;;;;5042463;28;20013;-80